sensor_id;sensor_type;location;lat;lon;timestamp;P1;durP1;ratioP1;P2;durP2;ratioP2
29776;SDS011;16677;52.224;7.484;2023-08-06T00:01:15;11.87;;;10.67;;
29776;SDS011;16677;52.224;7.484;2023-08-06T00:03:45;11.57;;;10.57;;
29776;SDS011;16677;52.224;7.484;2023-08-06T00:06:12;13.03;;;11.73;;
29776;SDS011;16677;52.224;7.484;2023-08-06T00:08:39;12.83;;;11.63;;
29776;SDS011;16677;52.224;7.484;2023-08-06T00:11:07;11.80;;;10.60;;
29776;SDS011;16677;52.224;7.484;2023-08-06T00:13:34;12.17;;;10.80;;
29776;SDS011;16677;52.224;7.484;2023-08-06T00:16:11;12.37;;;11.20;;
29776;SDS011;16677;52.224;7.484;2023-08-06T00:18:40;11.37;;;10.37;;
29776;SDS011;16677;52.224;7.484;2023-08-06T00:21:08;11.83;;;10.70;;
29776;SDS011;16677;52.224;7.484;2023-08-06T00:23:36;11.97;;;10.07;;
29776;SDS011;16677;52.224;7.484;2023-08-06T00:26:03;11.73;;;10.57;;
29776;SDS011;16677;52.224;7.484;2023-08-06T00:28:30;12.07;;;10.87;;
29776;SDS011;16677;52.224;7.484;2023-08-06T00:30:57;13.00;;;11.43;;
29776;SDS011;16677;52.224;7.484;2023-08-06T00:33:25;12.80;;;11.57;;
29776;SDS011;16677;52.224;7.484;2023-08-06T00:35:52;13.67;;;12.27;;
29776;SDS011;16677;52.224;7.484;2023-08-06T00:38:19;13.63;;;12.33;;
29776;SDS011;16677;52.224;7.484;2023-08-06T00:40:46;13.60;;;12.20;;
29776;SDS011;16677;52.224;7.484;2023-08-06T00:43:13;12.67;;;11.40;;
29776;SDS011;16677;52.224;7.484;2023-08-06T00:45:41;12.60;;;11.30;;
29776;SDS011;16677;52.224;7.484;2023-08-06T00:48:08;12.47;;;11.17;;
29776;SDS011;16677;52.224;7.484;2023-08-06T00:50:35;11.30;;;10.17;;
29776;SDS011;16677;52.224;7.484;2023-08-06T00:53:02;10.83;;;9.83;;
29776;SDS011;16677;52.224;7.484;2023-08-06T00:55:30;10.40;;;9.40;;
29776;SDS011;16677;52.224;7.484;2023-08-06T00:57:57;11.37;;;10.27;;
29776;SDS011;16677;52.224;7.484;2023-08-06T01:00:24;11.80;;;9.53;;
29776;SDS011;16677;52.224;7.484;2023-08-06T01:05:20;11.43;;;9.93;;
29776;SDS011;16677;52.224;7.484;2023-08-06T01:13:47;11.27;;;10.10;;
29776;SDS011;16677;52.224;7.484;2023-08-06T01:16:19;11.90;;;10.63;;
29776;SDS011;16677;52.224;7.484;2023-08-06T01:18:48;12.60;;;11.40;;
29776;SDS011;16677;52.224;7.484;2023-08-06T01:21:16;11.60;;;10.50;;
29776;SDS011;16677;52.224;7.484;2023-08-06T01:23:45;12.97;;;11.57;;
29776;SDS011;16677;52.224;7.484;2023-08-06T01:31:43;13.37;;;12.07;;
29776;SDS011;16677;52.224;7.484;2023-08-06T01:34:22;13.83;;;12.27;;
29776;SDS011;16677;52.224;7.484;2023-08-06T01:36:53;13.53;;;12.13;;
29776;SDS011;16677;52.224;7.484;2023-08-06T01:39:20;15.67;;;12.10;;
29776;SDS011;16677;52.224;7.484;2023-08-06T01:41:48;13.60;;;12.30;;
29776;SDS011;16677;52.224;7.484;2023-08-06T01:44:16;14.47;;;13.00;;
29776;SDS011;16677;52.224;7.484;2023-08-06T01:46:43;13.30;;;11.97;;
29776;SDS011;16677;52.224;7.484;2023-08-06T01:49:11;14.43;;;12.93;;
29776;SDS011;16677;52.224;7.484;2023-08-06T01:51:38;14.10;;;12.63;;
29776;SDS011;16677;52.224;7.484;2023-08-06T01:54:05;12.97;;;11.77;;
29776;SDS011;16677;52.224;7.484;2023-08-06T01:56:32;13.43;;;11.97;;
29776;SDS011;16677;52.224;7.484;2023-08-06T01:58:59;13.03;;;11.73;;
29776;SDS011;16677;52.224;7.484;2023-08-06T02:01:30;11.67;;;10.57;;
29776;SDS011;16677;52.224;7.484;2023-08-06T02:03:57;14.63;;;11.63;;
29776;SDS011;16677;52.224;7.484;2023-08-06T02:06:24;12.77;;;11.43;;
29776;SDS011;16677;52.224;7.484;2023-08-06T02:08:52;12.70;;;11.50;;
29776;SDS011;16677;52.224;7.484;2023-08-06T02:11:19;13.00;;;11.70;;
29776;SDS011;16677;52.224;7.484;2023-08-06T02:13:46;13.40;;;11.47;;
29776;SDS011;16677;52.224;7.484;2023-08-06T02:16:13;12.63;;;11.33;;
29776;SDS011;16677;52.224;7.484;2023-08-06T02:18:40;11.37;;;10.27;;
29776;SDS011;16677;52.224;7.484;2023-08-06T02:21:07;12.53;;;11.10;;
29776;SDS011;16677;52.224;7.484;2023-08-06T02:23:34;13.63;;;11.07;;
29776;SDS011;16677;52.224;7.484;2023-08-06T02:26:02;12.10;;;10.40;;
29776;SDS011;16677;52.224;7.484;2023-08-06T02:28:31;11.60;;;10.40;;
29776;SDS011;16677;52.224;7.484;2023-08-06T02:30:58;12.70;;;11.50;;
29776;SDS011;16677;52.224;7.484;2023-08-06T02:33:26;11.73;;;10.53;;
29776;SDS011;16677;52.224;7.484;2023-08-06T02:36:00;13.17;;;11.80;;
29776;SDS011;16677;52.224;7.484;2023-08-06T02:38:31;12.07;;;10.87;;
29776;SDS011;16677;52.224;7.484;2023-08-06T02:40:59;12.33;;;11.13;;
29776;SDS011;16677;52.224;7.484;2023-08-06T02:43:29;12.53;;;10.43;;
29776;SDS011;16677;52.224;7.484;2023-08-06T02:45:57;12.60;;;11.00;;
29776;SDS011;16677;52.224;7.484;2023-08-06T02:48:26;12.70;;;11.40;;
29776;SDS011;16677;52.224;7.484;2023-08-06T02:50:56;11.83;;;10.63;;
29776;SDS011;16677;52.224;7.484;2023-08-06T02:53:26;16.73;;;12.57;;
29776;SDS011;16677;52.224;7.484;2023-08-06T02:55:53;16.10;;;12.20;;
29776;SDS011;16677;52.224;7.484;2023-08-06T02:58:21;13.43;;;12.00;;
29776;SDS011;16677;52.224;7.484;2023-08-06T03:00:58;17.05;;;15.35;;
29776;SDS011;16677;52.224;7.484;2023-08-06T03:03:30;14.20;;;12.80;;
29776;SDS011;16677;52.224;7.484;2023-08-06T03:05:58;15.80;;;14.32;;
29776;SDS011;16677;52.224;7.484;2023-08-06T03:08:26;14.70;;;13.30;;
29776;SDS011;16677;52.224;7.484;2023-08-06T03:10:55;14.47;;;12.97;;
29776;SDS011;16677;52.224;7.484;2023-08-06T03:13:22;15.67;;;13.17;;
29776;SDS011;16677;52.224;7.484;2023-08-06T03:15:52;13.60;;;12.23;;
29776;SDS011;16677;52.224;7.484;2023-08-06T03:18:24;13.23;;;11.87;;
29776;SDS011;16677;52.224;7.484;2023-08-06T03:20:55;13.10;;;11.70;;
29776;SDS011;16677;52.224;7.484;2023-08-06T03:23:23;12.47;;;11.17;;
29776;SDS011;16677;52.224;7.484;2023-08-06T03:25:50;13.27;;;11.90;;
29776;SDS011;16677;52.224;7.484;2023-08-06T03:28:17;15.57;;;11.90;;
29776;SDS011;16677;52.224;7.484;2023-08-06T03:30:44;14.47;;;11.60;;
29776;SDS011;16677;52.224;7.484;2023-08-06T03:33:12;12.57;;;11.27;;
29776;SDS011;16677;52.224;7.484;2023-08-06T03:35:39;12.27;;;11.00;;
29776;SDS011;16677;52.224;7.484;2023-08-06T03:38:06;13.50;;;12.20;;
29776;SDS011;16677;52.224;7.484;2023-08-06T03:40:34;13.07;;;11.77;;
29776;SDS011;16677;52.224;7.484;2023-08-06T03:43:02;13.50;;;12.10;;
29776;SDS011;16677;52.224;7.484;2023-08-06T03:45:29;14.00;;;12.30;;
29776;SDS011;16677;52.224;7.484;2023-08-06T03:47:57;14.17;;;12.77;;
29776;SDS011;16677;52.224;7.484;2023-08-06T03:50:24;13.20;;;11.83;;
29776;SDS011;16677;52.224;7.484;2023-08-06T03:52:51;16.70;;;13.13;;
29776;SDS011;16677;52.224;7.484;2023-08-06T03:55:18;14.53;;;12.97;;
29776;SDS011;16677;52.224;7.484;2023-08-06T03:57:45;16.10;;;13.50;;
29776;SDS011;16677;52.224;7.484;2023-08-06T04:00:13;14.50;;;12.50;;
29776;SDS011;16677;52.224;7.484;2023-08-06T04:02:40;20.73;;;14.27;;
29776;SDS011;16677;52.224;7.484;2023-08-06T04:05:07;16.03;;;14.37;;
29776;SDS011;16677;52.224;7.484;2023-08-06T04:07:35;14.30;;;12.80;;
29776;SDS011;16677;52.224;7.484;2023-08-06T04:10:03;15.53;;;13.93;;
29776;SDS011;16677;52.224;7.484;2023-08-06T04:12:31;14.50;;;12.97;;
29776;SDS011;16677;52.224;7.484;2023-08-06T04:15:02;15.23;;;13.37;;
29776;SDS011;16677;52.224;7.484;2023-08-06T04:17:30;15.50;;;12.77;;
29776;SDS011;16677;52.224;7.484;2023-08-06T04:19:58;14.03;;;12.53;;
29776;SDS011;16677;52.224;7.484;2023-08-06T04:22:25;16.40;;;13.20;;
29776;SDS011;16677;52.224;7.484;2023-08-06T04:24:52;13.93;;;12.53;;
29776;SDS011;16677;52.224;7.484;2023-08-06T04:27:19;14.13;;;12.63;;
29776;SDS011;16677;52.224;7.484;2023-08-06T04:29:47;16.27;;;12.10;;
29776;SDS011;16677;52.224;7.484;2023-08-06T04:32:14;14.37;;;12.97;;
29776;SDS011;16677;52.224;7.484;2023-08-06T04:34:41;14.43;;;12.93;;
29776;SDS011;16677;52.224;7.484;2023-08-06T04:37:09;13.10;;;11.23;;
29776;SDS011;16677;52.224;7.484;2023-08-06T04:39:36;12.93;;;11.63;;
29776;SDS011;16677;52.224;7.484;2023-08-06T04:42:04;12.87;;;11.47;;
29776;SDS011;16677;52.224;7.484;2023-08-06T04:44:32;12.60;;;10.13;;
29776;SDS011;16677;52.224;7.484;2023-08-06T04:46:59;12.03;;;10.83;;
29776;SDS011;16677;52.224;7.484;2023-08-06T04:49:26;11.13;;;10.13;;
29776;SDS011;16677;52.224;7.484;2023-08-06T04:51:53;11.88;;;10.88;;
29776;SDS011;16677;52.224;7.484;2023-08-06T04:54:21;11.37;;;10.47;;
29776;SDS011;16677;52.224;7.484;2023-08-06T04:56:48;10.17;;;9.17;;
29776;SDS011;16677;52.224;7.484;2023-08-06T05:01:44;12.77;;;10.63;;
29776;SDS011;16677;52.224;7.484;2023-08-06T05:04:11;11.10;;;10.10;;
29776;SDS011;16677;52.224;7.484;2023-08-06T05:06:38;10.37;;;8.77;;
29776;SDS011;16677;52.224;7.484;2023-08-06T05:09:06;9.23;;;8.43;;
29776;SDS011;16677;52.224;7.484;2023-08-06T05:11:33;10.13;;;9.20;;
29776;SDS011;16677;52.224;7.484;2023-08-06T05:14:01;10.50;;;8.77;;
29776;SDS011;16677;52.224;7.484;2023-08-06T05:16:28;9.13;;;8.23;;
29776;SDS011;16677;52.224;7.484;2023-08-06T05:18:57;10.93;;;7.90;;
29776;SDS011;16677;52.224;7.484;2023-08-06T05:21:24;9.37;;;8.50;;
29776;SDS011;16677;52.224;7.484;2023-08-06T05:23:52;10.30;;;7.90;;
29776;SDS011;16677;52.224;7.484;2023-08-06T05:26:19;8.37;;;7.67;;
29776;SDS011;16677;52.224;7.484;2023-08-06T05:28:46;8.73;;;7.63;;
29776;SDS011;16677;52.224;7.484;2023-08-06T05:31:14;8.07;;;7.37;;
29776;SDS011;16677;52.224;7.484;2023-08-06T05:33:41;7.63;;;6.90;;
29776;SDS011;16677;52.224;7.484;2023-08-06T05:36:08;8.57;;;7.40;;
29776;SDS011;16677;52.224;7.484;2023-08-06T05:38:35;10.82;;;8.23;;
29776;SDS011;16677;52.224;7.484;2023-08-06T05:41:02;8.45;;;7.55;;
29776;SDS011;16677;52.224;7.484;2023-08-06T05:43:30;8.40;;;6.77;;
29776;SDS011;16677;52.224;7.484;2023-08-06T05:45:57;7.93;;;7.10;;
29776;SDS011;16677;52.224;7.484;2023-08-06T05:48:24;7.97;;;7.28;;
29776;SDS011;16677;52.224;7.484;2023-08-06T05:50:52;7.07;;;6.40;;
29776;SDS011;16677;52.224;7.484;2023-08-06T05:53:19;7.87;;;5.93;;
29776;SDS011;16677;52.224;7.484;2023-08-06T05:55:46;6.00;;;5.03;;
29776;SDS011;16677;52.224;7.484;2023-08-06T05:58:14;6.27;;;4.93;;
29776;SDS011;16677;52.224;7.484;2023-08-06T06:00:41;5.93;;;4.70;;
29776;SDS011;16677;52.224;7.484;2023-08-06T06:03:08;4.75;;;4.18;;
29776;SDS011;16677;52.224;7.484;2023-08-06T06:05:39;5.40;;;4.45;;
29776;SDS011;16677;52.224;7.484;2023-08-06T06:08:06;4.93;;;4.40;;
29776;SDS011;16677;52.224;7.484;2023-08-06T06:10:36;4.40;;;4.00;;
29776;SDS011;16677;52.224;7.484;2023-08-06T06:13:03;4.22;;;3.83;;
29776;SDS011;16677;52.224;7.484;2023-08-06T06:15:33;4.60;;;3.70;;
29776;SDS011;16677;52.224;7.484;2023-08-06T06:18:00;4.45;;;4.05;;
29776;SDS011;16677;52.224;7.484;2023-08-06T06:20:27;4.65;;;4.07;;
29776;SDS011;16677;52.224;7.484;2023-08-06T06:22:54;5.70;;;4.40;;
29776;SDS011;16677;52.224;7.484;2023-08-06T06:25:21;5.47;;;4.00;;
29776;SDS011;16677;52.224;7.484;2023-08-06T06:27:51;6.47;;;4.10;;
29776;SDS011;16677;52.224;7.484;2023-08-06T06:30:18;4.50;;;4.10;;
29776;SDS011;16677;52.224;7.484;2023-08-06T06:32:48;5.35;;;4.30;;
29776;SDS011;16677;52.224;7.484;2023-08-06T06:35:15;5.05;;;4.53;;
29776;SDS011;16677;52.224;7.484;2023-08-06T06:37:42;4.47;;;4.07;;
29776;SDS011;16677;52.224;7.484;2023-08-06T06:40:10;4.60;;;4.20;;
29776;SDS011;16677;52.224;7.484;2023-08-06T06:42:37;4.77;;;4.37;;
29776;SDS011;16677;52.224;7.484;2023-08-06T06:45:04;5.70;;;4.57;;
29776;SDS011;16677;52.224;7.484;2023-08-06T06:47:32;6.70;;;4.60;;
29776;SDS011;16677;52.224;7.484;2023-08-06T06:50:01;6.00;;;4.20;;
29776;SDS011;16677;52.224;7.484;2023-08-06T06:52:29;4.80;;;4.40;;
29776;SDS011;16677;52.224;7.484;2023-08-06T06:54:57;4.70;;;4.20;;
29776;SDS011;16677;52.224;7.484;2023-08-06T06:57:24;5.87;;;4.57;;
29776;SDS011;16677;52.224;7.484;2023-08-06T06:59:54;5.03;;;4.50;;
29776;SDS011;16677;52.224;7.484;2023-08-06T07:04:56;4.22;;;3.90;;
29776;SDS011;16677;52.224;7.484;2023-08-06T07:07:23;4.53;;;3.80;;
29776;SDS011;16677;52.224;7.484;2023-08-06T07:09:53;6.07;;;3.90;;
29776;SDS011;16677;52.224;7.484;2023-08-06T07:12:20;4.50;;;4.10;;
29776;SDS011;16677;52.224;7.484;2023-08-06T07:14:48;4.50;;;3.57;;
29776;SDS011;16677;52.224;7.484;2023-08-06T07:17:15;4.33;;;3.93;;
29776;SDS011;16677;52.224;7.484;2023-08-06T07:19:43;6.73;;;4.00;;
29776;SDS011;16677;52.224;7.484;2023-08-06T07:22:10;5.30;;;3.73;;
29776;SDS011;16677;52.224;7.484;2023-08-06T07:24:37;5.75;;;4.50;;
29776;SDS011;16677;52.224;7.484;2023-08-06T07:27:04;5.33;;;4.17;;
29776;SDS011;16677;52.224;7.484;2023-08-06T07:29:35;5.80;;;4.33;;
29776;SDS011;16677;52.224;7.484;2023-08-06T07:32:02;6.70;;;4.57;;
29776;SDS011;16677;52.224;7.484;2023-08-06T07:34:29;4.60;;;4.13;;
29776;SDS011;16677;52.224;7.484;2023-08-06T07:36:57;5.17;;;4.67;;
29776;SDS011;16677;52.224;7.484;2023-08-06T07:39:24;5.30;;;4.90;;
29776;SDS011;16677;52.224;7.484;2023-08-06T07:41:52;5.70;;;5.10;;
29776;SDS011;16677;52.224;7.484;2023-08-06T07:44:22;5.30;;;4.43;;
29776;SDS011;16677;52.224;7.484;2023-08-06T07:46:50;4.93;;;4.50;;
29776;SDS011;16677;52.224;7.484;2023-08-06T07:49:17;5.00;;;4.50;;
29776;SDS011;16677;52.224;7.484;2023-08-06T07:51:44;13.03;;;5.40;;
29776;SDS011;16677;52.224;7.484;2023-08-06T07:54:11;5.67;;;4.70;;
29776;SDS011;16677;52.224;7.484;2023-08-06T07:56:41;5.03;;;4.53;;
29776;SDS011;16677;52.224;7.484;2023-08-06T07:59:08;5.33;;;4.90;;
29776;SDS011;16677;52.224;7.484;2023-08-06T08:01:35;5.50;;;4.47;;
29776;SDS011;16677;52.224;7.484;2023-08-06T08:04:02;6.43;;;4.60;;
29776;SDS011;16677;52.224;7.484;2023-08-06T08:06:31;5.93;;;4.53;;
29776;SDS011;16677;52.224;7.484;2023-08-06T08:08:59;8.33;;;4.70;;
29776;SDS011;16677;52.224;7.484;2023-08-06T08:11:26;5.20;;;4.70;;
29776;SDS011;16677;52.224;7.484;2023-08-06T08:13:53;5.27;;;4.47;;
29776;SDS011;16677;52.224;7.484;2023-08-06T08:16:20;5.80;;;4.20;;
29776;SDS011;16677;52.224;7.484;2023-08-06T08:18:47;5.13;;;4.37;;
29776;SDS011;16677;52.224;7.484;2023-08-06T08:21:17;5.07;;;4.30;;
29776;SDS011;16677;52.224;7.484;2023-08-06T08:23:46;5.90;;;4.90;;
29776;SDS011;16677;52.224;7.484;2023-08-06T08:26:15;5.47;;;4.97;;
29776;SDS011;16677;52.224;7.484;2023-08-06T08:28:43;7.60;;;4.97;;
29776;SDS011;16677;52.224;7.484;2023-08-06T08:31:13;7.90;;;5.67;;
29776;SDS011;16677;52.224;7.484;2023-08-06T08:33:42;6.73;;;5.60;;
29776;SDS011;16677;52.224;7.484;2023-08-06T08:36:10;6.50;;;5.90;;
29776;SDS011;16677;52.224;7.484;2023-08-06T08:38:40;9.53;;;6.20;;
29776;SDS011;16677;52.224;7.484;2023-08-06T08:41:10;9.03;;;6.10;;
29776;SDS011;16677;52.224;7.484;2023-08-06T08:56:01;7.85;;;7.05;;
29776;SDS011;16677;52.224;7.484;2023-08-06T08:58:28;8.97;;;6.97;;
29776;SDS011;16677;52.224;7.484;2023-08-06T09:00:59;8.10;;;7.37;;
29776;SDS011;16677;52.224;7.484;2023-08-06T09:03:28;9.27;;;6.60;;
29776;SDS011;16677;52.224;7.484;2023-08-06T09:05:55;7.77;;;7.07;;
29776;SDS011;16677;52.224;7.484;2023-08-06T09:08:26;8.13;;;7.33;;
29776;SDS011;16677;52.224;7.484;2023-08-06T09:10:59;6.93;;;6.27;;
29776;SDS011;16677;52.224;7.484;2023-08-06T09:13:28;6.33;;;5.77;;
29776;SDS011;16677;52.224;7.484;2023-08-06T09:15:55;6.43;;;5.83;;
29776;SDS011;16677;52.224;7.484;2023-08-06T09:18:26;6.77;;;5.40;;
29776;SDS011;16677;52.224;7.484;2023-08-06T09:20:57;6.17;;;5.67;;
29776;SDS011;16677;52.224;7.484;2023-08-06T09:23:28;7.57;;;5.65;;
29776;SDS011;16677;52.224;7.484;2023-08-06T09:25:57;6.33;;;5.73;;
29776;SDS011;16677;52.224;7.484;2023-08-06T09:28:34;6.87;;;5.50;;
29776;SDS011;16677;52.224;7.484;2023-08-06T09:31:09;5.93;;;5.30;;
29776;SDS011;16677;52.224;7.484;2023-08-06T09:33:39;6.57;;;5.53;;
29776;SDS011;16677;52.224;7.484;2023-08-06T09:36:12;5.70;;;5.10;;
29776;SDS011;16677;52.224;7.484;2023-08-06T09:38:39;5.97;;;5.47;;
29776;SDS011;16677;52.224;7.484;2023-08-06T09:41:08;6.50;;;5.87;;
29776;SDS011;16677;52.224;7.484;2023-08-06T09:43:42;8.47;;;5.47;;
29776;SDS011;16677;52.224;7.484;2023-08-06T09:46:13;7.63;;;5.47;;
29776;SDS011;16677;52.224;7.484;2023-08-06T09:48:46;6.23;;;5.20;;
29776;SDS011;16677;52.224;7.484;2023-08-06T09:51:14;5.80;;;5.20;;
29776;SDS011;16677;52.224;7.484;2023-08-06T09:53:42;5.00;;;4.43;;
29776;SDS011;16677;52.224;7.484;2023-08-06T09:56:10;5.00;;;4.10;;
29776;SDS011;16677;52.224;7.484;2023-08-06T09:58:38;5.78;;;4.28;;
29776;SDS011;16677;52.224;7.484;2023-08-06T10:01:06;5.33;;;4.83;;
29776;SDS011;16677;52.224;7.484;2023-08-06T10:03:34;6.50;;;5.13;;
29776;SDS011;16677;52.224;7.484;2023-08-06T10:06:03;3.40;;;3.10;;
29776;SDS011;16677;52.224;7.484;2023-08-06T10:08:33;4.20;;;3.80;;
29776;SDS011;16677;52.224;7.484;2023-08-06T10:11:01;3.10;;;2.80;;
29776;SDS011;16677;52.224;7.484;2023-08-06T10:13:30;4.70;;;4.00;;
29776;SDS011;16677;52.224;7.484;2023-08-06T10:16:00;4.00;;;3.40;;
29776;SDS011;16677;52.224;7.484;2023-08-06T10:18:32;6.63;;;3.97;;
29776;SDS011;16677;52.224;7.484;2023-08-06T10:21:00;4.20;;;3.80;;
29776;SDS011;16677;52.224;7.484;2023-08-06T10:23:33;4.47;;;2.80;;
29776;SDS011;16677;52.224;7.484;2023-08-06T10:26:04;4.07;;;3.67;;
29776;SDS011;16677;52.224;7.484;2023-08-06T10:28:36;4.70;;;3.70;;
29776;SDS011;16677;52.224;7.484;2023-08-06T10:31:05;4.87;;;4.37;;
29776;SDS011;16677;52.224;7.484;2023-08-06T10:36:09;3.93;;;3.63;;
29776;SDS011;16677;52.224;7.484;2023-08-06T10:38:44;4.03;;;3.73;;
29776;SDS011;16677;52.224;7.484;2023-08-06T10:41:27;7.13;;;4.83;;
29776;SDS011;16677;52.224;7.484;2023-08-06T10:44:29;7.87;;;5.47;;
29776;SDS011;16677;52.224;7.484;2023-08-06T10:46:57;5.63;;;4.90;;
29776;SDS011;16677;52.224;7.484;2023-08-06T10:49:57;4.53;;;4.13;;
29776;SDS011;16677;52.224;7.484;2023-08-06T10:52:27;5.13;;;4.73;;
29776;SDS011;16677;52.224;7.484;2023-08-06T10:54:57;5.00;;;4.47;;
29776;SDS011;16677;52.224;7.484;2023-08-06T10:57:24;4.87;;;4.37;;
29776;SDS011;16677;52.224;7.484;2023-08-06T10:59:51;4.33;;;3.87;;
29776;SDS011;16677;52.224;7.484;2023-08-06T11:02:36;4.90;;;4.40;;
29776;SDS011;16677;52.224;7.484;2023-08-06T11:05:09;5.07;;;4.40;;
29776;SDS011;16677;52.224;7.484;2023-08-06T11:07:38;5.37;;;4.30;;
29776;SDS011;16677;52.224;7.484;2023-08-06T11:10:08;5.13;;;3.83;;
29776;SDS011;16677;52.224;7.484;2023-08-06T11:12:38;5.37;;;4.97;;
29776;SDS011;16677;52.224;7.484;2023-08-06T11:15:06;5.27;;;4.77;;
29776;SDS011;16677;52.224;7.484;2023-08-06T11:17:34;5.60;;;4.80;;
29776;SDS011;16677;52.224;7.484;2023-08-06T11:20:03;4.53;;;4.13;;
29776;SDS011;16677;52.224;7.484;2023-08-06T11:22:31;4.97;;;3.83;;
29776;SDS011;16677;52.224;7.484;2023-08-06T11:24:59;4.87;;;4.37;;
29776;SDS011;16677;52.224;7.484;2023-08-06T11:27:27;7.30;;;4.73;;
29776;SDS011;16677;52.224;7.484;2023-08-06T11:29:55;5.63;;;5.13;;
29776;SDS011;16677;52.224;7.484;2023-08-06T11:32:22;5.27;;;4.33;;
29776;SDS011;16677;52.224;7.484;2023-08-06T11:34:50;5.00;;;3.70;;
29776;SDS011;16677;52.224;7.484;2023-08-06T11:37:21;4.72;;;4.30;;
29776;SDS011;16677;52.224;7.484;2023-08-06T11:39:51;5.07;;;4.15;;
29776;SDS011;16677;52.224;7.484;2023-08-06T11:42:19;3.92;;;3.63;;
29776;SDS011;16677;52.224;7.484;2023-08-06T11:44:46;5.57;;;4.40;;
29776;SDS011;16677;52.224;7.484;2023-08-06T11:47:17;5.30;;;3.75;;
29776;SDS011;16677;52.224;7.484;2023-08-06T11:49:50;5.93;;;3.53;;
29776;SDS011;16677;52.224;7.484;2023-08-06T11:52:21;4.57;;;3.63;;
29776;SDS011;16677;52.224;7.484;2023-08-06T11:55:05;4.07;;;3.67;;
29776;SDS011;16677;52.224;7.484;2023-08-06T11:57:38;3.40;;;3.10;;
29776;SDS011;16677;52.224;7.484;2023-08-06T12:00:07;3.35;;;2.90;;
29776;SDS011;16677;52.224;7.484;2023-08-06T12:02:39;3.17;;;2.80;;
29776;SDS011;16677;52.224;7.484;2023-08-06T12:05:28;4.35;;;3.13;;
29776;SDS011;16677;52.224;7.484;2023-08-06T12:07:58;3.83;;;3.50;;
29776;SDS011;16677;52.224;7.484;2023-08-06T12:10:30;4.30;;;2.90;;
29776;SDS011;16677;52.224;7.484;2023-08-06T12:12:59;3.28;;;2.90;;
29776;SDS011;16677;52.224;7.484;2023-08-06T12:15:27;3.72;;;3.42;;
29776;SDS011;16677;52.224;7.484;2023-08-06T12:17:57;3.47;;;3.17;;
29776;SDS011;16677;52.224;7.484;2023-08-06T12:20:24;3.17;;;2.87;;
29776;SDS011;16677;52.224;7.484;2023-08-06T12:22:52;3.60;;;2.80;;
29776;SDS011;16677;52.224;7.484;2023-08-06T12:25:19;3.33;;;3.03;;
29776;SDS011;16677;52.224;7.484;2023-08-06T12:27:46;4.05;;;3.08;;
29776;SDS011;16677;52.224;7.484;2023-08-06T12:30:13;3.20;;;2.90;;
29776;SDS011;16677;52.224;7.484;2023-08-06T12:32:40;4.38;;;2.75;;
29776;SDS011;16677;52.224;7.484;2023-08-06T12:35:08;3.87;;;3.23;;
29776;SDS011;16677;52.224;7.484;2023-08-06T12:37:35;3.30;;;2.92;;
29776;SDS011;16677;52.224;7.484;2023-08-06T12:40:05;4.77;;;2.90;;
29776;SDS011;16677;52.224;7.484;2023-08-06T12:42:53;4.18;;;2.95;;
29776;SDS011;16677;52.224;7.484;2023-08-06T12:45:20;2.80;;;2.60;;
29776;SDS011;16677;52.224;7.484;2023-08-06T12:47:48;3.80;;;2.40;;
29776;SDS011;16677;52.224;7.484;2023-08-06T12:50:16;3.15;;;2.58;;
29776;SDS011;16677;52.224;7.484;2023-08-06T12:52:44;2.60;;;2.40;;
29776;SDS011;16677;52.224;7.484;2023-08-06T12:55:12;4.03;;;2.78;;
29776;SDS011;16677;52.224;7.484;2023-08-06T12:57:39;3.15;;;2.20;;
29776;SDS011;16677;52.224;7.484;2023-08-06T13:00:22;3.20;;;2.50;;
29776;SDS011;16677;52.224;7.484;2023-08-06T13:02:49;2.57;;;2.37;;
29776;SDS011;16677;52.224;7.484;2023-08-06T13:05:16;2.75;;;2.55;;
29776;SDS011;16677;52.224;7.484;2023-08-06T13:07:44;4.43;;;2.33;;
29776;SDS011;16677;52.224;7.484;2023-08-06T13:10:11;3.22;;;2.65;;
29776;SDS011;16677;52.224;7.484;2023-08-06T13:12:38;3.40;;;2.80;;
29776;SDS011;16677;52.224;7.484;2023-08-06T13:15:05;4.63;;;3.00;;
29776;SDS011;16677;52.224;7.484;2023-08-06T13:17:33;3.38;;;2.25;;
29776;SDS011;16677;52.224;7.484;2023-08-06T13:20:01;3.28;;;2.33;;
29776;SDS011;16677;52.224;7.484;2023-08-06T13:22:28;2.83;;;2.20;;
29776;SDS011;16677;52.224;7.484;2023-08-06T13:24:55;3.35;;;2.15;;
29776;SDS011;16677;52.224;7.484;2023-08-06T13:27:23;2.75;;;2.17;;
29776;SDS011;16677;52.224;7.484;2023-08-06T13:29:50;3.92;;;2.25;;
29776;SDS011;16677;52.224;7.484;2023-08-06T13:32:17;3.45;;;2.65;;
29776;SDS011;16677;52.224;7.484;2023-08-06T13:34:44;3.85;;;3.08;;
29776;SDS011;16677;52.224;7.484;2023-08-06T13:37:11;4.13;;;2.75;;
29776;SDS011;16677;52.224;7.484;2023-08-06T13:39:38;3.60;;;3.30;;
29776;SDS011;16677;52.224;7.484;2023-08-06T13:42:06;3.47;;;3.03;;
29776;SDS011;16677;52.224;7.484;2023-08-06T13:44:33;3.35;;;3.13;;
29776;SDS011;16677;52.224;7.484;2023-08-06T13:47:02;3.33;;;2.47;;
29776;SDS011;16677;52.224;7.484;2023-08-06T13:49:29;2.88;;;2.30;;
29776;SDS011;16677;52.224;7.484;2023-08-06T13:51:59;3.17;;;2.87;;
29776;SDS011;16677;52.224;7.484;2023-08-06T13:54:46;3.10;;;2.50;;
29776;SDS011;16677;52.224;7.484;2023-08-06T13:57:13;3.10;;;2.80;;
29776;SDS011;16677;52.224;7.484;2023-08-06T13:59:40;3.00;;;2.80;;
29776;SDS011;16677;52.224;7.484;2023-08-06T14:02:10;3.35;;;2.92;;
29776;SDS011;16677;52.224;7.484;2023-08-06T14:04:37;3.65;;;3.28;;
29776;SDS011;16677;52.224;7.484;2023-08-06T14:07:06;4.13;;;3.00;;
29776;SDS011;16677;52.224;7.484;2023-08-06T14:09:33;3.83;;;2.93;;
29776;SDS011;16677;52.224;7.484;2023-08-06T14:12:01;3.60;;;3.20;;
29776;SDS011;16677;52.224;7.484;2023-08-06T14:14:29;2.97;;;2.50;;
29776;SDS011;16677;52.224;7.484;2023-08-06T14:16:59;3.37;;;3.03;;
29776;SDS011;16677;52.224;7.484;2023-08-06T14:19:28;3.90;;;3.10;;
29776;SDS011;16677;52.224;7.484;2023-08-06T14:21:55;3.00;;;2.80;;
29776;SDS011;16677;52.224;7.484;2023-08-06T14:24:22;2.60;;;2.40;;
29776;SDS011;16677;52.224;7.484;2023-08-06T14:26:49;3.17;;;2.30;;
29776;SDS011;16677;52.224;7.484;2023-08-06T14:29:18;2.67;;;2.47;;
29776;SDS011;16677;52.224;7.484;2023-08-06T14:31:46;2.87;;;2.50;;
29776;SDS011;16677;52.224;7.484;2023-08-06T14:34:13;2.60;;;2.37;;
29776;SDS011;16677;52.224;7.484;2023-08-06T14:36:40;3.20;;;2.90;;
29776;SDS011;16677;52.224;7.484;2023-08-06T14:39:07;2.73;;;2.53;;
29776;SDS011;16677;52.224;7.484;2023-08-06T14:41:35;2.83;;;2.63;;
29776;SDS011;16677;52.224;7.484;2023-08-06T14:44:02;2.93;;;2.63;;
29776;SDS011;16677;52.224;7.484;2023-08-06T14:46:29;3.23;;;2.60;;
29776;SDS011;16677;52.224;7.484;2023-08-06T14:48:56;2.83;;;2.57;;
29776;SDS011;16677;52.224;7.484;2023-08-06T14:51:23;3.10;;;2.30;;
29776;SDS011;16677;52.224;7.484;2023-08-06T14:53:51;2.90;;;2.50;;
29776;SDS011;16677;52.224;7.484;2023-08-06T14:56:18;2.90;;;2.23;;
29776;SDS011;16677;52.224;7.484;2023-08-06T14:58:45;3.73;;;2.63;;
29776;SDS011;16677;52.224;7.484;2023-08-06T15:01:12;4.33;;;2.60;;
29776;SDS011;16677;52.224;7.484;2023-08-06T15:03:39;3.40;;;2.30;;
29776;SDS011;16677;52.224;7.484;2023-08-06T15:06:07;4.40;;;3.20;;
29776;SDS011;16677;52.224;7.484;2023-08-06T15:08:34;10.93;;;4.27;;
29776;SDS011;16677;52.224;7.484;2023-08-06T15:11:01;7.30;;;4.23;;
29776;SDS011;16677;52.224;7.484;2023-08-06T15:13:29;6.53;;;4.13;;
29776;SDS011;16677;52.224;7.484;2023-08-06T15:15:57;11.10;;;5.00;;
29776;SDS011;16677;52.224;7.484;2023-08-06T15:18:24;5.23;;;3.50;;
29776;SDS011;16677;52.224;7.484;2023-08-06T15:20:52;6.70;;;4.13;;